EGEO/OBN METAR and TAF weather

Enter ICAO airport designator
Station Type Date Time Source
EGEO METAR 2021/09/16 15:20 UTC NOAA

EGEO 161520Z 17011KT 140V200 9000 VCSH BKN024 16/12 Q1012


Station Type Date Time Source
EGEO Decoded METAR 2021/09/16 15:20 UTC NOAA

Station name not available
Sep 16, 2021 - 11:20 AM EDT / 2021.09.16 1520 UTC
Wind: from the S (170 degrees) at 13 MPH (11 KT) (direction variable):0
Visibility: 5 mile(s):0
Sky conditions: mostly cloudy
Weather: showers in the vicinity
Temperature: 60 F (16 C)
Dew Point: 53 F (12 C)
Relative Humidity: 77%
Pressure (altimeter): 29.88 in. Hg (1012 hPa)
ob: EGEO 161520Z 17011KT 140V200 9000 VCSH BKN024 16/12 Q1012
cycle: 15

Station Type Date Time Source
EGEO TAF UTC NOAA

Error!

Example: see airport list